Terminal Aerodrome Forecast
Issued by NWS

Home | Current Version | Previous Version | Text Only | Print | Product List | Glossary On
Versions: 1 2 3 4 5 6 7 8 9 10 11 12
701
FTUS44 KEPZ 231737
TAFTCS
TAF
KTCS 231737Z 2318/2418 10008KT P6SM SCT060 BKN250
     FM232100 14011KT P6SM VCTS SCT060CB SCT100 BKN200
      TEMPO 2400/2404 VRB25G35KT 4SM -TSRA BKN040CB BKN080 OVC200
     FM240400 30011KT 6SM -TSRA BKN040CB OVC100
      TEMPO 2406/2410 VRB25G35KT 1SM +TSRA BR BKN010 BKN030CB OVC060
     FM241500 33008KT P6SM VCTS BKN030CB BKN060 OVC120=

USA.gov is the U.S. government's official web portal to all federal, state and local government web resources and services.